createdAt,value
2022-10-13T00:01:11.284Z,1.90
2022-10-13T00:03:39.574Z,1.88
2022-10-13T00:06:08.431Z,1.85
2022-10-13T00:08:36.015Z,1.90
2022-10-13T00:11:11.788Z,2.00
2022-10-13T00:13:38.467Z,1.70
2022-10-13T00:16:05.427Z,1.73
2022-10-13T00:18:32.067Z,1.40
2022-10-13T00:20:58.713Z,1.63
2022-10-13T00:23:25.364Z,1.70
2022-10-13T00:25:51.935Z,1.60
2022-10-13T00:28:20.164Z,1.60
2022-10-13T00:30:47.081Z,1.38
2022-10-13T00:33:14.640Z,1.23
2022-10-13T00:35:44.088Z,1.80
2022-10-13T00:38:11.459Z,1.60
2022-10-13T00:40:53.830Z,1.58
2022-10-13T00:43:47.663Z,1.30
2022-10-13T00:46:15.291Z,1.50
2022-10-13T00:48:44.657Z,1.10
2022-10-13T00:51:14.619Z,1.10
2022-10-13T00:53:41.941Z,1.20
2022-10-13T00:56:11.421Z,1.20
2022-10-13T00:58:40.673Z,1.20
2022-10-13T01:01:08.009Z,1.35
2022-10-13T01:03:35.764Z,0.98
2022-10-13T01:06:04.720Z,1.10
2022-10-13T01:08:31.612Z,1.05
2022-10-13T01:11:07.495Z,1.17
2022-10-13T01:14:28.464Z,1.05
2022-10-13T01:17:13.611Z,1.23
2022-10-13T01:19:58.128Z,1.10
2022-10-13T01:22:36.829Z,1.30
2022-10-13T01:25:11.652Z,1.10
2022-10-13T01:27:44.741Z,1.30
2022-10-13T01:30:15.113Z,1.00
2022-10-13T01:33:14.072Z,1.40
2022-10-13T01:36:19.244Z,1.30
2022-10-13T01:39:04.056Z,1.48
2022-10-13T01:41:44.304Z,1.30
2022-10-13T01:44:26.004Z,1.40
2022-10-13T01:46:54.280Z,1.63
2022-10-13T01:49:25.956Z,1.50
2022-10-13T01:51:55.044Z,1.40
2022-10-13T01:54:22.102Z,1.50
2022-10-13T01:56:55.493Z,1.40
2022-10-13T01:59:24.461Z,1.20
2022-10-13T02:02:19.719Z,1.50
2022-10-13T02:04:55.657Z,1.77
2022-10-13T02:07:36.051Z,1.60
2022-10-13T02:12:39.453Z,1.40
2022-10-13T02:15:09.191Z,1.60
2022-10-13T02:17:36.035Z,1.65
2022-10-13T02:20:06.085Z,1.77
2022-10-13T02:22:42.253Z,1.80
2022-10-13T02:25:09.136Z,1.80
2022-10-13T02:27:35.625Z,1.75
2022-10-13T02:30:02.427Z,1.70
2022-10-13T02:32:30.986Z,1.67
2022-10-13T02:34:57.532Z,1.80
2022-10-13T02:37:25.730Z,2.00
2022-10-13T02:39:52.568Z,1.85
2022-10-13T02:42:19.751Z,1.80
2022-10-13T02:44:46.528Z,1.83
2022-10-13T02:47:13.332Z,1.80
2022-10-13T02:49:40.788Z,1.60
2022-10-13T02:52:07.961Z,2.00
2022-10-13T02:54:41.908Z,1.90
2022-10-13T02:57:08.399Z,1.85
2022-10-13T02:59:34.991Z,2.03
2022-10-13T03:02:01.578Z,1.70
2022-10-13T03:04:28.627Z,1.80
2022-10-13T03:06:59.212Z,1.83
2022-10-13T03:09:25.998Z,1.90
2022-10-13T03:11:52.597Z,1.80
2022-10-13T03:14:19.211Z,1.85
2022-10-13T03:16:45.770Z,2.13
2022-10-13T03:19:12.990Z,2.00
2022-10-13T03:21:39.688Z,1.90
2022-10-13T03:24:06.679Z,2.15
2022-10-13T03:26:33.822Z,2.45
2022-10-13T03:29:00.519Z,2.15
2022-10-13T03:31:27.525Z,2.05
2022-10-13T03:34:01.920Z,2.30
2022-10-13T03:36:28.437Z,2.30
2022-10-13T03:38:54.899Z,2.63
2022-10-13T03:41:22.478Z,2.70
2022-10-13T03:43:51.801Z,2.70
2022-10-13T03:46:19.148Z,2.25
2022-10-13T03:48:47.688Z,2.45
2022-10-13T03:51:17.811Z,2.40
2022-10-13T03:53:49.794Z,3.53
2022-10-13T03:56:18.622Z,7.80
2022-10-13T03:58:56.400Z,10.05
2022-10-13T04:01:25.652Z,10.70
2022-10-13T04:03:54.651Z,3.67
2022-10-13T04:06:22.909Z,2.63
2022-10-13T04:08:49.551Z,6.90
2022-10-13T04:11:16.624Z,14.07
2022-10-13T04:13:45.135Z,11.68
2022-10-13T04:16:17.743Z,9.27
2022-10-13T04:18:45.273Z,7.70
2022-10-13T04:21:15.169Z,7.07
2022-10-13T04:23:42.082Z,7.22
2022-10-13T04:26:16.059Z,5.40
2022-10-13T04:28:42.745Z,3.83
2022-10-13T04:31:09.479Z,3.55
2022-10-13T04:33:36.258Z,3.70
2022-10-13T04:36:07.896Z,3.13
2022-10-13T04:38:34.476Z,3.00
2022-10-13T04:41:05.513Z,2.83
2022-10-13T04:43:33.392Z,3.13
2022-10-13T04:46:06.300Z,3.10
2022-10-13T04:48:32.844Z,2.80
2022-10-13T04:51:13.386Z,2.85
2022-10-13T04:53:41.326Z,2.72
2022-10-13T04:56:13.691Z,2.78
2022-10-13T04:58:41.455Z,3.17
2022-10-13T05:01:16.466Z,3.05
2022-10-13T05:03:45.959Z,2.60
2022-10-13T05:06:17.979Z,2.65
2022-10-13T05:08:49.041Z,2.40
2022-10-13T05:11:16.477Z,2.30
2022-10-13T05:13:43.353Z,2.45
2022-10-13T05:16:12.701Z,2.25
2022-10-13T05:18:39.547Z,2.10
2022-10-13T05:21:11.890Z,1.70
2022-10-13T05:23:39.435Z,1.70
2022-10-13T05:26:11.403Z,1.80
2022-10-13T05:28:38.421Z,2.10
2022-10-13T05:31:15.915Z,2.08
2022-10-13T05:33:43.288Z,1.60
2022-10-13T05:36:14.945Z,1.33
2022-10-13T05:38:43.937Z,1.40
2022-10-13T05:41:14.112Z,1.42
2022-10-13T05:43:49.352Z,1.40
2022-10-13T05:46:16.121Z,1.40
2022-10-13T05:48:42.647Z,1.45
2022-10-13T05:51:22.952Z,1.30
2022-10-13T05:56:29.902Z,1.20
2022-10-13T05:59:02.548Z,1.20
2022-10-13T06:01:32.877Z,1.30
2022-10-13T06:06:31.474Z,1.30
2022-10-13T06:08:59.860Z,1.30
2022-10-13T06:11:27.019Z,1.40
2022-10-13T06:13:53.669Z,1.60
2022-10-13T06:16:20.173Z,2.00
2022-10-13T06:18:46.721Z,1.85
2022-10-13T06:21:13.607Z,1.90
2022-10-13T06:23:40.383Z,2.25
2022-10-13T06:26:08.720Z,2.20
2022-10-13T06:28:37.126Z,2.70
2022-10-13T06:31:06.528Z,2.95
2022-10-13T06:33:34.189Z,3.15
2022-10-13T06:36:02.772Z,3.60
2022-10-13T06:38:29.236Z,4.93
2022-10-13T06:40:59.765Z,5.07
2022-10-13T06:43:34.350Z,5.80
2022-10-13T06:46:06.090Z,6.93
2022-10-13T06:48:32.775Z,6.45
2022-10-13T06:51:07.257Z,7.32
2022-10-13T06:53:34.168Z,7.72
2022-10-13T06:56:03.650Z,9.18
2022-10-13T06:58:30.845Z,9.10
2022-10-13T07:00:57.569Z,10.85
2022-10-13T07:03:25.235Z,10.35
2022-10-13T07:05:52.452Z,12.13
2022-10-13T07:08:19.635Z,12.48
2022-10-13T07:10:46.332Z,13.15
2022-10-13T07:13:12.880Z,15.05
2022-10-13T07:15:40.915Z,15.65
2022-10-13T07:18:07.517Z,15.05
2022-10-13T07:20:34.439Z,14.73
2022-10-13T07:23:01.220Z,15.32
2022-10-13T07:25:28.826Z,16.50
2022-10-13T07:27:55.578Z,16.70
2022-10-13T07:30:22.207Z,17.15
2022-10-13T07:32:48.802Z,16.73
2022-10-13T07:35:15.719Z,17.13
2022-10-13T07:37:42.276Z,17.00
2022-10-13T07:40:09.487Z,17.42
2022-10-13T07:42:36.004Z,17.13
2022-10-13T07:45:02.993Z,17.10
2022-10-13T07:47:31.028Z,17.35
2022-10-13T07:49:57.560Z,15.23
2022-10-13T07:52:24.079Z,16.15
2022-10-13T07:54:51.073Z,15.18
2022-10-13T07:57:17.886Z,14.32
2022-10-13T07:59:45.494Z,15.02
2022-10-13T08:02:13.807Z,15.55
2022-10-13T08:04:40.653Z,13.68
2022-10-13T08:07:07.267Z,15.52
2022-10-13T08:09:34.744Z,14.52
2022-10-13T08:12:02.287Z,12.90
2022-10-13T08:14:30.302Z,12.25
2022-10-13T08:16:57.934Z,10.73
2022-10-13T08:19:26.465Z,12.13
2022-10-13T08:21:58.823Z,13.13
2022-10-13T08:24:27.387Z,13.88
2022-10-13T08:26:53.958Z,13.68
2022-10-13T08:29:22.318Z,13.38
2022-10-13T08:34:24.997Z,12.98
2022-10-13T08:36:54.510Z,13.50
2022-10-13T08:39:23.219Z,13.57
2022-10-13T08:41:50.425Z,13.30
2022-10-13T08:45:10.929Z,10.95
2022-10-13T08:47:29.092Z,11.27
2022-10-13T08:50:00.686Z,11.77
2022-10-13T08:52:43.344Z,11.07
2022-10-13T08:55:22.566Z,8.88
2022-10-13T08:57:49.185Z,9.00
2022-10-13T09:00:17.403Z,8.68
2022-10-13T09:02:50.320Z,7.25
2022-10-13T09:05:37.654Z,6.40
2022-10-13T09:08:13.611Z,6.07
2022-10-13T09:10:51.017Z,5.80
2022-10-13T09:13:19.175Z,6.20
2022-10-13T09:15:47.713Z,6.15
2022-10-13T09:18:16.904Z,4.82
2022-10-13T09:20:43.450Z,4.93
2022-10-13T09:23:22.681Z,4.00
2022-10-13T09:25:51.976Z,4.17
2022-10-13T09:28:23.947Z,4.10
2022-10-13T09:31:16.103Z,3.70
2022-10-13T09:33:43.338Z,5.28
2022-10-13T09:36:15.243Z,4.95
2022-10-13T09:38:45.548Z,3.40
2022-10-13T09:41:15.908Z,3.10
2022-10-13T09:43:48.421Z,3.55
2022-10-13T09:46:28.829Z,3.08
2022-10-13T09:48:59.339Z,3.05
2022-10-13T09:51:42.806Z,2.80
2022-10-13T09:54:35.104Z,2.10
2022-10-13T09:57:15.618Z,2.38
2022-10-13T10:02:34.885Z,2.00
2022-10-13T10:05:16.500Z,2.40
2022-10-13T10:07:45.925Z,2.00
2022-10-13T10:10:35.440Z,2.25
2022-10-13T10:13:12.148Z,1.60
2022-10-13T10:15:50.576Z,1.40
2022-10-13T10:19:00.456Z,2.28
2022-10-13T10:21:44.142Z,2.40
2022-10-13T10:24:31.934Z,2.28
2022-10-13T10:27:43.745Z,2.92
2022-10-13T10:30:15.721Z,2.90
2022-10-13T10:33:02.988Z,2.70
2022-10-13T10:36:08.774Z,2.72
2022-10-13T10:38:51.706Z,2.60
2022-10-13T10:42:13.481Z,2.80
2022-10-13T10:47:26.213Z,2.60
2022-10-13T10:50:05.223Z,6.30
2022-10-13T10:52:52.991Z,3.90
2022-10-13T10:55:29.656Z,3.50
2022-10-13T10:58:22.453Z,5.30
2022-10-13T11:01:13.597Z,2.65
2022-10-13T11:03:57.175Z,2.60
2022-10-13T11:06:33.802Z,2.63
2022-10-13T11:09:00.954Z,2.15
2022-10-13T11:11:33.556Z,5.05
2022-10-13T11:14:06.406Z,2.72
2022-10-13T11:16:40.701Z,2.50
2022-10-13T11:19:33.333Z,2.50
2022-10-13T11:21:59.780Z,2.70
2022-10-13T11:24:39.516Z,2.10
2022-10-13T11:27:09.106Z,2.60
2022-10-13T11:29:48.996Z,1.67
2022-10-13T11:32:25.781Z,2.08
2022-10-13T11:35:20.923Z,2.10
2022-10-13T11:38:17.606Z,1.58
2022-10-13T11:41:01.379Z,2.10
2022-10-13T11:43:52.601Z,1.80
2022-10-13T11:46:32.803Z,1.70
2022-10-13T11:49:30.150Z,1.33
2022-10-13T11:52:30.796Z,1.20
2022-10-13T11:55:11.928Z,1.40
2022-10-13T11:57:41.421Z,1.70
2022-10-13T12:00:18.892Z,1.50
2022-10-13T12:02:51.889Z,1.10
2022-10-13T12:05:28.171Z,1.60
2022-10-13T12:08:00.946Z,1.52
2022-10-13T12:10:34.870Z,2.40
2022-10-13T12:13:04.311Z,2.45
2022-10-13T12:15:33.987Z,2.00
2022-10-13T12:20:32.302Z,1.60
2022-10-13T12:25:29.235Z,1.50
2022-10-13T12:27:59.829Z,1.70
2022-10-13T12:30:37.683Z,3.65
2022-10-13T12:33:22.602Z,2.00
2022-10-13T12:35:49.171Z,1.30
2022-10-13T12:38:21.483Z,1.20
2022-10-13T12:40:50.176Z,2.28
2022-10-13T12:43:20.657Z,3.10
2022-10-13T12:45:49.227Z,1.95
2022-10-13T12:48:36.725Z,1.48
2022-10-13T12:51:20.226Z,2.00
2022-10-13T12:53:48.307Z,1.30
2022-10-13T12:56:33.071Z,2.03
2022-10-13T12:59:01.402Z,2.13
2022-10-13T13:01:30.926Z,1.17
2022-10-13T13:04:01.353Z,1.27
2022-10-13T13:06:33.195Z,1.60
2022-10-13T13:09:14.728Z,1.80
2022-10-13T13:11:41.533Z,1.50
2022-10-13T13:14:37.950Z,1.60
2022-10-13T13:17:23.511Z,1.40
2022-10-13T13:20:24.891Z,1.50
2022-10-13T13:22:51.385Z,1.50
2022-10-13T13:25:18.012Z,1.60
2022-10-13T13:27:44.933Z,1.50
2022-10-13T13:30:18.877Z,1.40
2022-10-13T13:32:45.420Z,1.30
2022-10-13T13:35:12.085Z,1.38
2022-10-13T13:37:48.935Z,1.42
2022-10-13T13:40:18.023Z,1.13
2022-10-13T13:42:44.615Z,1.30
2022-10-13T13:45:15.800Z,1.30
2022-10-13T13:48:00.691Z,1.23
2022-10-13T13:50:34.038Z,1.50
2022-10-13T13:53:00.838Z,1.30
2022-10-13T13:55:29.517Z,1.50
2022-10-13T13:57:57.462Z,1.50
2022-10-13T14:00:24.180Z,1.30
2022-10-13T14:02:55.853Z,1.20
2022-10-13T14:05:22.523Z,1.40
2022-10-13T14:07:49.255Z,1.38
2022-10-13T14:10:15.860Z,1.05
2022-10-13T14:12:42.341Z,1.20
2022-10-13T14:15:09.475Z,1.10
2022-10-13T14:17:36.176Z,1.40
2022-10-13T14:20:02.800Z,1.20
2022-10-13T14:22:29.445Z,1.45
2022-10-13T14:24:55.974Z,1.30
2022-10-13T14:27:22.888Z,1.10
2022-10-13T14:29:49.398Z,1.10
2022-10-13T14:32:16.447Z,1.00
2022-10-13T14:34:42.950Z,0.80
2022-10-13T14:37:09.429Z,0.80
2022-10-13T14:39:36.278Z,1.05
2022-10-13T14:42:02.813Z,1.23
2022-10-13T14:44:30.339Z,1.17
2022-10-13T14:46:57.052Z,0.90
2022-10-13T14:49:23.991Z,0.90
2022-10-13T14:51:50.587Z,1.05
2022-10-13T14:54:17.739Z,1.15
2022-10-13T14:56:48.114Z,2.60
2022-10-13T14:59:15.367Z,7.55
2022-10-13T15:01:42.919Z,8.00
2022-10-13T15:04:09.938Z,7.95
2022-10-13T15:06:39.260Z,4.60
2022-10-13T15:09:10.296Z,6.00
2022-10-13T15:11:38.537Z,6.68
2022-10-13T15:14:05.175Z,6.82
2022-10-13T15:16:35.085Z,6.63
2022-10-13T15:19:01.604Z,6.65
2022-10-13T15:21:28.112Z,6.07
2022-10-13T15:23:56.157Z,6.32
2022-10-13T15:26:22.701Z,6.28
2022-10-13T15:28:51.746Z,5.90
2022-10-13T15:31:20.419Z,4.43
2022-10-13T15:33:49.673Z,2.17
2022-10-13T15:36:16.336Z,1.80
2022-10-13T15:38:42.810Z,2.60
2022-10-13T15:41:10.717Z,2.97
2022-10-13T15:43:37.903Z,2.70
2022-10-13T15:46:07.205Z,3.00
2022-10-13T15:48:35.334Z,3.00
2022-10-13T15:51:02.911Z,2.58
2022-10-13T15:53:30.131Z,2.33
2022-10-13T15:55:56.644Z,4.40
2022-10-13T15:58:23.164Z,4.28
2022-10-13T16:00:50.317Z,5.25
2022-10-13T16:03:18.272Z,5.70
2022-10-13T16:05:47.092Z,6.10
2022-10-13T16:08:14.238Z,6.60
2022-10-13T16:10:42.296Z,6.55
2022-10-13T16:13:12.283Z,5.90
2022-10-13T16:15:38.980Z,6.30
2022-10-13T16:18:05.684Z,6.13
2022-10-13T16:20:35.048Z,6.18
2022-10-13T16:23:01.759Z,4.85
2022-10-13T16:25:29.404Z,4.97
2022-10-13T16:27:56.208Z,5.13
2022-10-13T16:30:22.763Z,4.07
2022-10-13T16:32:49.362Z,5.03
2022-10-13T16:35:16.049Z,5.43
2022-10-13T16:37:42.711Z,5.57
2022-10-13T16:40:09.620Z,5.07
2022-10-13T16:42:36.268Z,3.85
2022-10-13T16:45:03.417Z,3.40
2022-10-13T16:47:30.109Z,3.83
2022-10-13T16:49:56.582Z,3.67
2022-10-13T16:52:23.631Z,3.72
2022-10-13T16:54:50.245Z,3.45
2022-10-13T16:57:16.768Z,4.05
2022-10-13T16:59:43.312Z,3.97
2022-10-13T17:02:16.061Z,3.35
2022-10-13T17:04:43.274Z,3.97
2022-10-13T17:07:09.947Z,4.25
2022-10-13T17:09:36.519Z,4.78
2022-10-13T17:12:04.017Z,3.72
2022-10-13T17:14:30.727Z,3.90
2022-10-13T17:16:58.161Z,4.38
2022-10-13T17:19:25.507Z,4.28
2022-10-13T17:21:52.770Z,4.15
2022-10-13T17:24:19.626Z,4.95
2022-10-13T17:26:47.414Z,4.53
2022-10-13T17:29:15.361Z,5.20
2022-10-13T17:31:41.979Z,4.80
2022-10-13T17:34:09.301Z,5.05
2022-10-13T17:36:35.880Z,4.90
2022-10-13T17:39:09.739Z,5.18
2022-10-13T17:41:39.977Z,5.10
2022-10-13T17:44:06.690Z,4.30
2022-10-13T17:46:38.454Z,4.68
2022-10-13T17:49:10.926Z,4.57
2022-10-13T17:51:37.820Z,5.22
2022-10-13T17:54:04.563Z,4.45
2022-10-13T17:56:31.772Z,5.20
2022-10-13T17:59:00.390Z,5.40
2022-10-13T18:01:32.943Z,6.25
2022-10-13T18:04:02.821Z,6.10
2022-10-13T18:06:37.947Z,5.80
2022-10-13T18:09:07.348Z,4.40
2022-10-13T18:11:36.045Z,5.07
2022-10-13T18:14:02.871Z,4.88
2022-10-13T18:16:29.441Z,4.53
2022-10-13T18:18:55.934Z,4.50
2022-10-13T18:21:26.231Z,5.03
2022-10-13T18:26:28.432Z,4.70
2022-10-13T18:28:55.566Z,4.40
2022-10-13T18:31:25.572Z,4.47
2022-10-13T18:33:56.074Z,4.22
2022-10-13T18:36:26.075Z,4.40
2022-10-13T18:38:53.633Z,4.65
2022-10-13T18:41:24.555Z,4.80
2022-10-13T18:43:51.572Z,4.78
2022-10-13T18:46:20.100Z,5.75
2022-10-13T18:48:47.241Z,4.63
2022-10-13T18:51:16.687Z,4.60
2022-10-13T18:53:45.514Z,5.10
2022-10-13T18:56:19.064Z,5.77
2022-10-13T18:58:45.805Z,5.95
2022-10-13T19:01:14.725Z,5.47
2022-10-13T19:03:41.580Z,5.93
2022-10-13T19:06:10.985Z,6.20
2022-10-13T19:08:41.275Z,6.70
2022-10-13T19:11:15.541Z,6.28
2022-10-13T19:13:44.300Z,6.80
2022-10-13T19:16:26.837Z,6.10
2022-10-13T19:18:54.384Z,6.28
2022-10-13T19:21:29.650Z,6.68
2022-10-13T19:23:59.970Z,6.35
2022-10-13T19:26:29.765Z,6.25
2022-10-13T19:29:16.018Z,6.88
2022-10-13T19:31:43.070Z,7.13
2022-10-13T19:34:12.363Z,6.72
2022-10-13T19:36:44.731Z,6.90
2022-10-13T19:39:19.473Z,7.00
2022-10-13T19:41:51.705Z,7.18
2022-10-13T19:44:19.877Z,6.80
2022-10-13T19:46:47.541Z,7.10
2022-10-13T19:49:17.013Z,6.75
2022-10-13T19:51:49.081Z,6.55
2022-10-13T19:54:17.070Z,7.00
2022-10-13T19:56:47.272Z,6.97
2022-10-13T19:59:14.587Z,7.18
2022-10-13T20:01:41.651Z,6.75
2022-10-13T20:04:14.568Z,6.43
2022-10-13T20:06:43.584Z,7.32
2022-10-13T20:09:10.212Z,7.00
2022-10-13T20:11:36.752Z,7.30
2022-10-13T20:14:03.660Z,6.88
2022-10-13T20:16:30.375Z,6.78
2022-10-13T20:18:59.361Z,6.35
2022-10-13T20:21:27.648Z,6.53
2022-10-13T20:23:54.975Z,6.53
2022-10-13T20:26:21.923Z,6.95
2022-10-13T20:28:50.209Z,6.50
2022-10-13T20:31:19.002Z,6.30
2022-10-13T20:33:46.953Z,5.78
2022-10-13T20:36:16.541Z,6.85
2022-10-13T20:38:43.120Z,6.15
2022-10-13T20:41:16.300Z,6.55
2022-10-13T20:43:42.906Z,5.78
2022-10-13T20:46:10.114Z,6.07
2022-10-13T20:49:08.734Z,5.75
2022-10-13T20:51:27.087Z,5.80
2022-10-13T20:53:53.588Z,6.10
2022-10-13T20:56:23.369Z,5.50
2022-10-13T20:58:50.780Z,5.55
2022-10-13T21:01:19.034Z,5.30
2022-10-13T21:03:46.326Z,5.88
2022-10-13T21:06:14.345Z,5.32
2022-10-13T21:08:40.892Z,5.15
2022-10-13T21:11:12.756Z,5.32
2022-10-13T21:13:41.238Z,5.25
2022-10-13T21:16:10.973Z,4.88
2022-10-13T21:18:37.921Z,4.88
2022-10-13T21:21:06.920Z,5.25
2022-10-13T21:23:33.931Z,5.00
2022-10-13T21:26:02.640Z,4.97
2022-10-13T21:28:29.968Z,5.47
2022-10-13T21:31:07.785Z,4.90
2022-10-13T21:33:36.960Z,5.40
2022-10-13T21:36:12.313Z,5.57
2022-10-13T21:38:41.977Z,4.97
2022-10-13T21:41:10.183Z,5.10
2022-10-13T21:43:36.707Z,4.60
2022-10-13T21:46:20.647Z,5.10
2022-10-13T21:48:57.915Z,4.88
2022-10-13T21:51:29.138Z,5.55
2022-10-13T21:53:57.842Z,5.00
2022-10-13T21:56:26.096Z,5.38
2022-10-13T21:58:53.865Z,4.97
2022-10-13T22:01:21.369Z,4.80
2022-10-13T22:03:48.648Z,5.53
2022-10-13T22:06:19.749Z,5.10
2022-10-13T22:08:48.829Z,4.80
2022-10-13T22:11:23.110Z,5.20
2022-10-13T22:13:49.632Z,5.40
2022-10-13T22:16:25.040Z,5.15
2022-10-13T22:18:53.200Z,5.25
2022-10-13T22:21:23.017Z,4.93
2022-10-13T22:23:49.840Z,4.72
2022-10-13T22:26:17.948Z,4.65
2022-10-13T22:28:48.156Z,4.97
2022-10-13T22:31:14.981Z,5.20
2022-10-13T22:33:42.999Z,5.10
2022-10-13T22:36:13.576Z,5.03
2022-10-13T22:38:40.324Z,4.70
2022-10-13T22:41:07.999Z,4.55
2022-10-13T22:43:35.652Z,5.20
2022-10-13T22:46:12.977Z,5.00
2022-10-13T22:48:41.074Z,4.53
2022-10-13T22:51:12.766Z,5.05
2022-10-13T22:53:39.339Z,4.97
2022-10-13T22:56:11.981Z,4.80
2022-10-13T22:58:38.499Z,5.20
2022-10-13T23:01:10.259Z,4.70
2022-10-13T23:03:37.807Z,5.10
2022-10-13T23:06:05.025Z,4.93
2022-10-13T23:08:31.611Z,4.45
2022-10-13T23:10:58.493Z,5.10
2022-10-13T23:13:25.663Z,4.88
2022-10-13T23:15:53.682Z,5.07
2022-10-13T23:18:24.441Z,4.80
2022-10-13T23:20:55.814Z,4.82
2022-10-13T23:23:25.952Z,5.13
2022-10-13T23:25:52.523Z,4.95
2022-10-13T23:28:19.052Z,5.40
2022-10-13T23:30:45.599Z,5.20
2022-10-13T23:33:12.088Z,4.97
2022-10-13T23:35:39.570Z,4.97
2022-10-13T23:38:06.119Z,5.30
2022-10-13T23:40:34.538Z,5.15
2022-10-13T23:43:01.015Z,4.68
2022-10-13T23:45:27.610Z,5.35
2022-10-13T23:47:54.107Z,5.15
2022-10-13T23:50:21.655Z,5.20
2022-10-13T23:52:48.251Z,4.97
2022-10-13T23:55:15.130Z,5.35
2022-10-13T23:57:41.623Z,5.13
